VCV46 SVMI-SVJC
Flight info
| Callsign | VCV46 |
|---|---|
| Flight time | 0h 42m |
| Altitude | 32000 |
| Route | BUTSA2 ISISU DCT CRO |
| Aircraft | E190/M-SDE3GILORVW/S |
Departure
| Time | 2026-05-04 17:31 |
|---|---|
| Airport | Maiquetía Simón Bolívar International Airport (SVMI) |
Arrival
| Time | 2026-05-04 18:13 |
|---|---|
| Airport | Josefa Camejo International Airport (SVJC) |
| Time | Latitude | Longitude | Altitude | Speed | Heading |
|---|---|---|---|---|---|
| 2026-05-04 17:17 | 10.59832 | -67.00077 | 220 ft | 0 kts | 178° |
| 2026-05-04 17:21 | 10.59849 | -67.00078 | 222 ft | 4 kts | 178° |
| 2026-05-04 17:21 | 10.59898 | -67.00078 | 222 ft | 4 kts | 205° |
| 2026-05-04 17:22 | 10.59911 | -67.00062 | 220 ft | 4 kts | 269° |
| 2026-05-04 17:22 | 10.59911 | -67.00042 | 220 ft | 0 kts | 268° |
| 2026-05-04 17:24 | 10.59911 | -67.00044 | 220 ft | 1 kts | 268° |
| 2026-05-04 17:24 | 10.59956 | -67.00083 | 220 ft | 6 kts | 354° |
| 2026-05-04 17:25 | 10.60008 | -67.00087 | 220 ft | 8 kts | 344° |
| 2026-05-04 17:25 | 10.60024 | -67.00197 | 222 ft | 9 kts | 268° |
| 2026-05-04 17:26 | 10.60004 | -67.00331 | 224 ft | 10 kts | 264° |
| 2026-05-04 17:26 | 10.59997 | -67.00575 | 228 ft | 12 kts | 269° |
| 2026-05-04 17:27 | 10.59990 | -67.00759 | 231 ft | 14 kts | 268° |
| 2026-05-04 17:27 | 10.59984 | -67.00956 | 235 ft | 14 kts | 268° |
| 2026-05-04 17:28 | 10.59978 | -67.01153 | 238 ft | 14 kts | 268° |
| 2026-05-04 17:29 | 10.60144 | -67.01245 | 239 ft | 14 kts | 358° |
| 2026-05-04 17:29 | 10.60384 | -67.01159 | 238 ft | 21 kts | 87° |
| 2026-05-04 17:30 | 10.60452 | -66.98847 | 574 ft | 186 kts | 88° |
| 2026-05-04 17:31 | 10.60729 | -66.95949 | 2286 ft | 208 kts | 79° |
| 2026-05-04 17:31 | 10.62037 | -66.91703 | 5224 ft | 223 kts | 55° |
| 2026-05-04 17:32 | 10.64782 | -66.90132 | 6813 ft | 242 kts | 11° |
| 2026-05-04 17:33 | 10.69865 | -66.90032 | 6936 ft | 238 kts | 0° |
| 2026-05-04 17:33 | 10.71513 | -66.90058 | 7318 ft | 235 kts | 2° |
| 2026-05-04 17:34 | 10.76614 | -66.89932 | 9407 ft | 267 kts | 6° |
| 2026-05-04 17:34 | 10.78556 | -66.89838 | 9965 ft | 291 kts | 6° |
| 2026-05-04 17:35 | 10.84623 | -66.92404 | 11601 ft | 369 kts | 301° |
| 2026-05-04 17:35 | 10.85462 | -66.97532 | 13440 ft | 380 kts | 265° |
| 2026-05-04 17:35 | 10.85311 | -67.00238 | 14357 ft | 385 kts | 266° |
| 2026-05-04 17:36 | 10.85203 | -67.02984 | 15238 ft | 391 kts | 267° |
| 2026-05-04 17:36 | 10.85102 | -67.05771 | 16146 ft | 396 kts | 267° |
| 2026-05-04 17:36 | 10.84982 | -67.08595 | 17017 ft | 402 kts | 267° |
| 2026-05-04 17:36 | 10.84831 | -67.11459 | 17824 ft | 408 kts | 266° |
| 2026-05-04 17:37 | 10.84659 | -67.14357 | 18569 ft | 413 kts | 266° |
| 2026-05-04 17:37 | 10.84434 | -67.17233 | 19293 ft | 415 kts | 264° |
| 2026-05-04 17:37 | 10.84139 | -67.20165 | 19966 ft | 418 kts | 264° |
| 2026-05-04 17:37 | 10.84151 | -67.23121 | 20641 ft | 420 kts | 277° |
| 2026-05-04 17:38 | 10.84622 | -67.26054 | 21382 ft | 419 kts | 281° |
| 2026-05-04 17:38 | 10.85119 | -67.28971 | 22151 ft | 419 kts | 280° |
| 2026-05-04 17:38 | 10.85594 | -67.31890 | 22907 ft | 418 kts | 280° |
| 2026-05-04 17:38 | 10.86065 | -67.34810 | 23614 ft | 419 kts | 280° |
| 2026-05-04 17:39 | 10.87003 | -67.40675 | 24653 ft | 421 kts | 280° |
| 2026-05-04 17:39 | 10.87471 | -67.43619 | 25135 ft | 423 kts | 280° |
| 2026-05-04 17:39 | 10.87941 | -67.46582 | 25593 ft | 424 kts | 281° |
| 2026-05-04 17:40 | 10.88413 | -67.49552 | 26034 ft | 426 kts | 281° |
| 2026-05-04 17:40 | 10.88885 | -67.52534 | 26432 ft | 428 kts | 280° |
| 2026-05-04 17:40 | 10.89360 | -67.55530 | 26829 ft | 430 kts | 280° |
| 2026-05-04 17:40 | 10.89837 | -67.58543 | 27233 ft | 433 kts | 280° |
| 2026-05-04 17:41 | 10.90311 | -67.61544 | 27615 ft | 435 kts | 280° |
| 2026-05-04 17:41 | 10.90794 | -67.64596 | 27997 ft | 437 kts | 280° |
| 2026-05-04 17:41 | 10.91277 | -67.67656 | 28347 ft | 440 kts | 280° |
| 2026-05-04 17:41 | 10.91764 | -67.70736 | 28721 ft | 441 kts | 280° |
| 2026-05-04 17:42 | 10.92252 | -67.73828 | 29084 ft | 443 kts | 280° |
| 2026-05-04 17:42 | 10.92740 | -67.76919 | 29569 ft | 441 kts | 280° |
| 2026-05-04 17:42 | 10.93225 | -67.79996 | 30062 ft | 439 kts | 280° |
| 2026-05-04 17:42 | 10.93709 | -67.83065 | 30437 ft | 438 kts | 280° |
| 2026-05-04 17:43 | 10.94185 | -67.86085 | 30787 ft | 437 kts | 281° |
| 2026-05-04 17:43 | 10.94667 | -67.89140 | 31121 ft | 437 kts | 281° |
| 2026-05-04 17:43 | 10.95150 | -67.92201 | 31471 ft | 436 kts | 281° |
| 2026-05-04 17:43 | 10.95630 | -67.95247 | 31799 ft | 436 kts | 281° |
| 2026-05-04 17:44 | 10.96106 | -67.98275 | 32014 ft | 430 kts | 281° |
| 2026-05-04 17:44 | 10.96575 | -68.01249 | 31970 ft | 420 kts | 281° |
| 2026-05-04 17:44 | 10.97486 | -68.07023 | 31970 ft | 413 kts | 281° |
| 2026-05-04 17:45 | 10.98394 | -68.12790 | 31979 ft | 412 kts | 281° |
| 2026-05-04 17:45 | 10.99300 | -68.18548 | 31973 ft | 412 kts | 281° |
| 2026-05-04 17:46 | 11.00204 | -68.24304 | 31970 ft | 412 kts | 281° |
| 2026-05-04 17:46 | 11.01107 | -68.30063 | 31973 ft | 412 kts | 281° |
| 2026-05-04 17:47 | 11.02011 | -68.35827 | 31981 ft | 412 kts | 281° |
| 2026-05-04 17:47 | 11.03526 | -68.41430 | 31991 ft | 410 kts | 288° |
| 2026-05-04 17:48 | 11.05168 | -68.46996 | 32000 ft | 410 kts | 288° |
| 2026-05-04 17:48 | 11.06813 | -68.52562 | 32017 ft | 411 kts | 288° |
| 2026-05-04 17:49 | 11.08181 | -68.57190 | 32018 ft | 411 kts | 288° |
| 2026-05-04 17:49 | 11.10096 | -68.63666 | 31972 ft | 410 kts | 288° |
| 2026-05-04 17:50 | 11.11465 | -68.68298 | 31968 ft | 410 kts | 288° |
| 2026-05-04 17:50 | 11.13109 | -68.73868 | 31967 ft | 410 kts | 288° |
| 2026-05-04 17:51 | 11.14752 | -68.79433 | 31964 ft | 410 kts | 288° |
| 2026-05-04 17:51 | 11.16392 | -68.84998 | 31964 ft | 410 kts | 288° |
| 2026-05-04 17:52 | 11.18032 | -68.90565 | 31958 ft | 410 kts | 288° |
| 2026-05-04 17:52 | 11.19667 | -68.96113 | 31573 ft | 415 kts | 288° |
| 2026-05-04 17:53 | 11.20492 | -68.98917 | 31341 ft | 413 kts | 288° |
| 2026-05-04 17:53 | 11.21324 | -69.01742 | 30731 ft | 419 kts | 288° |
| 2026-05-04 17:53 | 11.22162 | -69.04588 | 30171 ft | 419 kts | 288° |
| 2026-05-04 17:53 | 11.22997 | -69.07427 | 29548 ft | 418 kts | 288° |
| 2026-05-04 17:54 | 11.23828 | -69.10251 | 29028 ft | 416 kts | 288° |
| 2026-05-04 17:54 | 11.24658 | -69.13083 | 28474 ft | 417 kts | 288° |
| 2026-05-04 17:54 | 11.25488 | -69.15911 | 27898 ft | 415 kts | 288° |
| 2026-05-04 17:54 | 11.26314 | -69.18721 | 27358 ft | 411 kts | 288° |
| 2026-05-04 17:55 | 11.27121 | -69.21468 | 26826 ft | 408 kts | 288° |
| 2026-05-04 17:55 | 11.27929 | -69.24228 | 26269 ft | 405 kts | 288° |
| 2026-05-04 17:55 | 11.28731 | -69.26965 | 25759 ft | 401 kts | 288° |
| 2026-05-04 17:55 | 11.29525 | -69.29687 | 25193 ft | 399 kts | 288° |
| 2026-05-04 17:56 | 11.30315 | -69.32390 | 24683 ft | 396 kts | 288° |
| 2026-05-04 17:56 | 11.31104 | -69.35074 | 24153 ft | 395 kts | 288° |
| 2026-05-04 17:56 | 11.31888 | -69.37754 | 23633 ft | 393 kts | 288° |
| 2026-05-04 17:56 | 11.32665 | -69.40416 | 23069 ft | 391 kts | 288° |
| 2026-05-04 17:57 | 11.33440 | -69.43063 | 22590 ft | 389 kts | 288° |
| 2026-05-04 17:57 | 11.34206 | -69.45685 | 22078 ft | 391 kts | 288° |
| 2026-05-04 17:57 | 11.34986 | -69.48347 | 21563 ft | 393 kts | 288° |
| 2026-05-04 17:57 | 11.35766 | -69.51022 | 21013 ft | 395 kts | 288° |
| 2026-05-04 17:58 | 11.36551 | -69.53712 | 20497 ft | 395 kts | 288° |
| 2026-05-04 17:58 | 11.37337 | -69.56402 | 19967 ft | 396 kts | 288° |
| 2026-05-04 17:58 | 11.38124 | -69.59093 | 19452 ft | 396 kts | 287° |
| 2026-05-04 17:58 | 11.38908 | -69.61788 | 18916 ft | 395 kts | 287° |
| 2026-05-04 17:59 | 11.39689 | -69.64463 | 18399 ft | 393 kts | 287° |
| 2026-05-04 17:59 | 11.40456 | -69.67099 | 17835 ft | 391 kts | 287° |
| 2026-05-04 17:59 | 11.42164 | -69.72276 | 16903 ft | 382 kts | 294° |
| 2026-05-04 18:00 | 11.43209 | -69.74763 | 16372 ft | 381 kts | 293° |
| 2026-05-04 18:00 | 11.44227 | -69.77254 | 15856 ft | 378 kts | 293° |
| 2026-05-04 18:00 | 11.45233 | -69.79730 | 15361 ft | 376 kts | 293° |
| 2026-05-04 18:00 | 11.46223 | -69.82186 | 14859 ft | 373 kts | 293° |
| 2026-05-04 18:01 | 11.47202 | -69.84623 | 14369 ft | 369 kts | 293° |
| 2026-05-04 18:01 | 11.48168 | -69.87028 | 13880 ft | 364 kts | 293° |
| 2026-05-04 18:01 | 11.49120 | -69.89407 | 13374 ft | 360 kts | 293° |
| 2026-05-04 18:02 | 11.50967 | -69.94024 | 12458 ft | 348 kts | 292° |
| 2026-05-04 18:02 | 11.51877 | -69.96305 | 11955 ft | 346 kts | 292° |
| 2026-05-04 18:02 | 11.52779 | -69.98562 | 11514 ft | 341 kts | 292° |
| 2026-05-04 18:02 | 11.53082 | -69.99322 | 11366 ft | 340 kts | 291° |
| 2026-05-04 18:03 | 11.53861 | -70.01275 | 10956 ft | 338 kts | 291° |
| 2026-05-04 18:03 | 11.54731 | -70.03459 | 10515 ft | 334 kts | 291° |
| 2026-05-04 18:03 | 11.55597 | -70.05647 | 10080 ft | 331 kts | 290° |
| 2026-05-04 18:03 | 11.56459 | -70.07814 | 9626 ft | 328 kts | 290° |
| 2026-05-04 18:04 | 11.57310 | -70.09960 | 9199 ft | 323 kts | 290° |
| 2026-05-04 18:04 | 11.58151 | -70.12071 | 8775 ft | 319 kts | 290° |
| 2026-05-04 18:04 | 11.59806 | -70.16229 | 7947 ft | 313 kts | 289° |
| 2026-05-04 18:05 | 11.60621 | -70.18283 | 7523 ft | 312 kts | 290° |
| 2026-05-04 18:05 | 11.61431 | -70.20319 | 7153 ft | 307 kts | 290° |
| 2026-05-04 18:05 | 11.62234 | -70.22335 | 6726 ft | 306 kts | 290° |
| 2026-05-04 18:05 | 11.63029 | -70.24320 | 6338 ft | 305 kts | 290° |
| 2026-05-04 18:06 | 11.64600 | -70.28275 | 5495 ft | 291 kts | 291° |
| 2026-05-04 18:06 | 11.65619 | -70.30001 | 5141 ft | 279 kts | 310° |
| 2026-05-04 18:06 | 11.66920 | -70.31413 | 4795 ft | 269 kts | 313° |
| 2026-05-04 18:07 | 11.68172 | -70.32793 | 4437 ft | 261 kts | 312° |
| 2026-05-04 18:07 | 11.69511 | -70.34005 | 4101 ft | 255 kts | 334° |
| 2026-05-04 18:07 | 11.71164 | -70.34347 | 3804 ft | 237 kts | 11° |
| 2026-05-04 18:07 | 11.72574 | -70.33689 | 3497 ft | 216 kts | 46° |
| 2026-05-04 18:08 | 11.73622 | -70.32676 | 3266 ft | 206 kts | 49° |
| 2026-05-04 18:08 | 11.74674 | -70.31695 | 2975 ft | 202 kts | 46° |
| 2026-05-04 18:08 | 11.75720 | -70.30779 | 2734 ft | 193 kts | 45° |
| 2026-05-04 18:08 | 11.76579 | -70.29815 | 2502 ft | 175 kts | 65° |
| 2026-05-04 18:09 | 11.76965 | -70.27602 | 2099 ft | 147 kts | 85° |
| 2026-05-04 18:09 | 11.77138 | -70.25696 | 1799 ft | 123 kts | 85° |
| 2026-05-04 18:10 | 11.77216 | -70.24844 | 1672 ft | 119 kts | 84° |
| 2026-05-04 18:10 | 11.77298 | -70.24004 | 1522 ft | 120 kts | 84° |
| 2026-05-04 18:10 | 11.77373 | -70.23182 | 1324 ft | 116 kts | 84° |
| 2026-05-04 18:10 | 11.77448 | -70.22387 | 1179 ft | 110 kts | 86° |
| 2026-05-04 18:11 | 11.77516 | -70.21617 | 1040 ft | 109 kts | 86° |
| 2026-05-04 18:11 | 11.77587 | -70.20834 | 919 ft | 111 kts | 85° |
| 2026-05-04 18:11 | 11.77681 | -70.20041 | 793 ft | 112 kts | 86° |
| 2026-05-04 18:11 | 11.77728 | -70.19237 | 649 ft | 115 kts | 85° |
| 2026-05-04 18:12 | 11.77814 | -70.18403 | 506 ft | 121 kts | 86° |
| 2026-05-04 18:12 | 11.77881 | -70.17542 | 335 ft | 120 kts | 84° |
| 2026-05-04 18:12 | 11.77953 | -70.16703 | 171 ft | 118 kts | 85° |
| 2026-05-04 18:12 | 11.78017 | -70.15920 | 97 ft | 99 kts | 85° |
| 2026-05-04 18:13 | 11.78062 | -70.15387 | 90 ft | 39 kts | 86° |
| 2026-05-04 18:13 | 11.78011 | -70.15234 | 87 ft | 19 kts | 114° |
| 2026-05-04 18:13 | 11.77940 | -70.15079 | 84 ft | 4 kts | 113° |
| 2026-05-04 18:14 | 11.77927 | -70.15048 | 84 ft | 5 kts | 112° |
| 2026-05-04 18:14 | 11.77910 | -70.15009 | 87 ft | 7 kts | 115° |
| 2026-05-04 18:14 | 11.77880 | -70.14973 | 89 ft | 7 kts | 151° |
| 2026-05-04 18:15 | 11.77812 | -70.14967 | 85 ft | 1 kts | 175° |
| 2026-05-04 18:15 | 11.77793 | -70.14965 | 83 ft | 0 kts | 176° |